Terminal Aerodrome Forecast
Issued by NWS

Home | Current Version | Previous Version | Graphics & Text | Print | Product List | Glossary On
Versions: 1 2 3 4 5 6 7 8 9 10 11 12 13 14 15 16 17
685
FTUS43 KMPX 271120
TAFRWF
TAF
KRWF 271120Z 2712/2812 20004KT P6SM SCT080 OVC120
     FM271700 24006KT P6SM VCTS OVC040CB
     FM272100 35005KT P6SM SCT025 OVC100
     FM280800 34005KT P6SM OVC015=

USA.gov is the U.S. government's official web portal to all federal, state and local government web resources and services.